createdAt,value
2022-10-23T00:02:19.040Z,11.44
2022-10-23T00:07:20.592Z,11.43
2022-10-23T00:12:22.019Z,11.31
2022-10-23T00:17:23.481Z,11.39
2022-10-23T00:22:24.907Z,11.39
2022-10-23T00:27:26.612Z,11.27
2022-10-23T00:32:28.259Z,11.39
2022-10-23T00:37:29.700Z,11.29
2022-10-23T00:42:31.153Z,11.12
2022-10-23T00:47:32.840Z,11.35
2022-10-23T00:52:37.356Z,11.36
2022-10-23T00:57:43.660Z,11.36
2022-10-23T01:02:45.627Z,11.26
2022-10-23T01:08:27.740Z,11.41
2022-10-23T01:13:43.952Z,11.33
2022-10-23T01:19:02.828Z,11.40
2022-10-23T01:24:35.221Z,11.44
2022-10-23T01:29:59.081Z,11.49
2022-10-23T01:35:11.628Z,11.47
2022-10-23T01:40:29.269Z,11.47
2022-10-23T01:45:44.059Z,11.59
2022-10-23T01:50:46.957Z,11.56
2022-10-23T01:55:49.918Z,11.55
2022-10-23T02:00:53.033Z,11.42
2022-10-23T02:05:54.552Z,11.50
2022-10-23T02:11:07.880Z,11.41
2022-10-23T02:16:23.303Z,11.56
2022-10-23T02:21:50.402Z,11.43
2022-10-23T02:26:55.449Z,11.40
2022-10-23T02:31:56.995Z,11.53
2022-10-23T02:36:58.548Z,11.52
2022-10-23T02:42:11.097Z,11.50
2022-10-23T02:47:38.183Z,11.53
2022-10-23T02:52:59.347Z,11.53
2022-10-23T02:58:27.269Z,11.47
2022-10-23T03:03:35.230Z,11.48
2022-10-23T03:08:53.682Z,11.31
2022-10-23T03:13:55.150Z,11.40
2022-10-23T03:18:56.602Z,11.47
2022-10-23T03:23:58.017Z,11.57
2022-10-23T03:28:59.407Z,11.49
2022-10-23T03:34:02.238Z,11.52
2022-10-23T03:39:05.727Z,11.38
2022-10-23T03:44:07.222Z,11.35
2022-10-23T03:49:08.695Z,11.34
2022-10-23T03:54:10.587Z,11.37
2022-10-23T03:59:12.027Z,11.23
2022-10-23T04:04:13.996Z,11.42
2022-10-23T04:09:15.484Z,11.36
2022-10-23T04:14:17.032Z,11.29
2022-10-23T04:19:18.456Z,11.30
2022-10-23T04:24:19.937Z,11.31
2022-10-23T04:29:21.697Z,11.25
2022-10-23T04:34:23.222Z,11.25
2022-10-23T04:39:24.640Z,11.33
2022-10-23T04:44:26.244Z,11.31
2022-10-23T04:49:27.700Z,11.32
2022-10-23T04:54:29.095Z,11.23
2022-10-23T04:59:30.639Z,11.22
2022-10-23T05:04:32.233Z,11.13
2022-10-23T05:09:33.900Z,11.25
2022-10-23T05:14:35.375Z,11.13
2022-10-23T05:19:44.601Z,11.13
2022-10-23T05:24:49.665Z,11.09
2022-10-23T05:29:52.096Z,11.05
2022-10-23T05:34:54.380Z,10.98
2022-10-23T05:39:55.882Z,10.93
2022-10-23T05:44:57.365Z,10.94
2022-10-23T05:49:58.766Z,10.94
2022-10-23T05:55:00.371Z,11.00
2022-10-23T06:00:01.885Z,10.82
2022-10-23T06:05:03.813Z,10.83
2022-10-23T06:10:06.210Z,10.78
2022-10-23T06:15:08.132Z,10.76
2022-10-23T06:20:09.944Z,10.83
2022-10-23T06:25:11.347Z,10.79
2022-10-23T06:30:13.319Z,10.77
2022-10-23T06:35:14.904Z,10.93
2022-10-23T06:40:16.456Z,10.83
2022-10-23T06:45:17.947Z,10.93
2022-10-23T06:50:19.385Z,10.99
2022-10-23T06:55:20.831Z,10.97
2022-10-23T07:00:22.300Z,11.07
2022-10-23T07:05:23.773Z,11.10
2022-10-23T07:10:25.376Z,11.20
2022-10-23T07:15:27.469Z,11.69
2022-10-23T07:20:28.909Z,11.53
2022-10-23T07:25:30.506Z,11.58
2022-10-23T07:30:32.353Z,11.61
2022-10-23T07:35:37.046Z,11.79
2022-10-23T07:40:40.762Z,11.95
2022-10-23T07:45:42.237Z,12.18
2022-10-23T07:50:43.865Z,12.36
2022-10-23T07:55:57.429Z,12.87
2022-10-23T08:01:01.223Z,13.36
2022-10-23T08:06:02.801Z,13.59
2022-10-23T08:11:04.711Z,13.64
2022-10-23T08:16:06.682Z,13.83
2022-10-23T08:21:10.304Z,14.02
2022-10-23T08:26:12.116Z,14.28
2022-10-23T08:31:15.798Z,14.36
2022-10-23T08:36:25.659Z,14.47
2022-10-23T08:41:34.227Z,14.40
2022-10-23T08:46:47.000Z,14.29
2022-10-23T08:51:53.993Z,14.55
2022-10-23T08:57:03.964Z,14.57
2022-10-23T09:02:16.642Z,14.45
2022-10-23T09:07:23.872Z,14.54
2022-10-23T09:12:27.575Z,14.62
2022-10-23T09:17:37.975Z,14.46
2022-10-23T09:22:40.614Z,14.59
2022-10-23T09:27:53.268Z,14.63
2022-10-23T09:32:58.931Z,14.75
2022-10-23T09:38:00.421Z,14.84
2022-10-23T09:43:13.624Z,14.88
2022-10-23T09:48:17.431Z,14.84
2022-10-23T09:53:27.081Z,14.86
2022-10-23T09:58:35.619Z,14.97
2022-10-23T10:03:37.361Z,15.01
2022-10-23T10:08:50.533Z,15.00
2022-10-23T10:14:22.752Z,15.14
2022-10-23T10:19:40.292Z,15.01
2022-10-23T10:25:04.818Z,15.02
2022-10-23T10:30:23.110Z,14.94
2022-10-23T10:35:41.083Z,14.99
2022-10-23T10:41:05.117Z,14.95
2022-10-23T10:46:17.464Z,15.04
2022-10-23T10:51:29.337Z,15.01
2022-10-23T10:56:34.745Z,14.99
2022-10-23T11:02:00.292Z,15.05
2022-10-23T11:07:07.938Z,15.16
2022-10-23T11:12:23.053Z,15.19
2022-10-23T11:17:29.441Z,15.43
2022-10-23T11:23:00.255Z,15.41
2022-10-23T11:28:31.738Z,15.39
2022-10-23T11:34:12.850Z,15.31
2022-10-23T11:39:25.914Z,15.29
2022-10-23T11:44:42.677Z,15.36
2022-10-23T11:49:44.117Z,15.46
2022-10-23T11:54:45.528Z,15.52
2022-10-23T11:59:53.554Z,15.54
2022-10-23T12:04:55.712Z,15.50
2022-10-23T12:10:07.052Z,15.69
2022-10-23T12:15:19.231Z,15.71
2022-10-23T12:20:35.875Z,15.68
2022-10-23T12:25:56.099Z,15.51
2022-10-23T12:31:29.203Z,15.62
2022-10-23T12:36:43.229Z,15.87
2022-10-23T12:41:44.764Z,15.60
2022-10-23T12:46:51.719Z,15.63
2022-10-23T12:52:02.016Z,15.82
2022-10-23T12:57:20.591Z,15.69
2022-10-23T13:02:32.315Z,16.11
2022-10-23T13:07:37.152Z,15.89
2022-10-23T13:12:40.168Z,15.92
2022-10-23T13:17:46.142Z,15.90
2022-10-23T13:22:50.849Z,15.90
2022-10-23T13:28:13.142Z,16.16
2022-10-23T13:33:20.769Z,15.92
2022-10-23T13:38:46.389Z,16.07
2022-10-23T13:43:48.075Z,15.89
2022-10-23T13:48:49.472Z,15.90
2022-10-23T13:53:51.454Z,15.86
2022-10-23T13:58:53.436Z,16.03
2022-10-23T14:03:57.118Z,16.11
2022-10-23T14:08:58.752Z,16.16
2022-10-23T14:14:00.389Z,16.02
2022-10-23T14:19:01.869Z,15.82
2022-10-23T14:24:03.394Z,15.79
2022-10-23T14:29:08.953Z,15.76
2022-10-23T14:34:12.896Z,15.72
2022-10-23T14:39:14.437Z,15.74
2022-10-23T14:44:16.081Z,15.80
2022-10-23T14:49:17.612Z,15.86
2022-10-23T14:54:19.094Z,15.75
2022-10-23T14:59:20.559Z,15.64
2022-10-23T15:04:22.149Z,15.54
2022-10-23T15:09:23.607Z,15.64
2022-10-23T15:14:25.150Z,15.69
2022-10-23T15:19:27.441Z,15.68
2022-10-23T15:24:28.909Z,15.75
2022-10-23T15:29:30.465Z,15.67
2022-10-23T15:34:32.066Z,15.58
2022-10-23T15:39:33.636Z,15.57
2022-10-23T15:44:35.101Z,15.62
2022-10-23T15:49:36.743Z,15.51
2022-10-23T15:54:38.222Z,15.44
2022-10-23T15:59:39.693Z,15.55
2022-10-23T16:04:41.149Z,15.50
2022-10-23T16:09:42.675Z,15.60
2022-10-23T16:14:44.893Z,15.54
2022-10-23T16:19:46.329Z,15.62
2022-10-23T16:24:47.966Z,15.72
2022-10-23T16:29:49.513Z,15.61
2022-10-23T16:34:50.984Z,15.60
2022-10-23T16:39:52.430Z,15.58
2022-10-23T16:44:54.345Z,15.47
2022-10-23T16:49:55.805Z,15.51
2022-10-23T16:54:57.241Z,15.44
2022-10-23T16:59:58.730Z,15.53
2022-10-23T17:05:00.317Z,15.45
2022-10-23T17:10:01.969Z,15.44
2022-10-23T17:15:03.758Z,15.49
2022-10-23T17:20:05.724Z,15.56
2022-10-23T17:25:08.107Z,15.51
2022-10-23T17:30:12.620Z,15.42
2022-10-23T17:35:14.528Z,15.47
2022-10-23T17:40:16.181Z,15.40
2022-10-23T17:45:17.593Z,15.32
2022-10-23T17:50:19.052Z,15.30
2022-10-23T17:55:20.447Z,15.36
2022-10-23T18:00:21.925Z,15.30
2022-10-23T18:05:23.401Z,15.31
2022-10-23T18:10:24.874Z,15.28
2022-10-23T18:15:26.328Z,15.27
2022-10-23T18:20:27.781Z,15.35
2022-10-23T18:25:29.389Z,15.35
2022-10-23T18:30:30.839Z,15.23
2022-10-23T18:35:36.093Z,15.26
2022-10-23T18:40:38.857Z,15.23
2022-10-23T18:45:42.406Z,15.23
2022-10-23T18:50:43.908Z,15.18
2022-10-23T18:55:46.240Z,15.13
2022-10-23T19:00:47.706Z,15.08
2022-10-23T19:05:49.136Z,15.06
2022-10-23T19:10:52.521Z,14.99
2022-10-23T19:15:54.089Z,15.09
2022-10-23T19:20:55.520Z,15.11
2022-10-23T19:25:57.065Z,14.99
2022-10-23T19:31:00.141Z,15.00
2022-10-23T19:36:05.478Z,14.96
2022-10-23T19:41:07.547Z,14.88
2022-10-23T19:46:11.954Z,14.84
2022-10-23T19:51:13.849Z,14.84
2022-10-23T19:56:15.292Z,14.86
2022-10-23T20:01:19.129Z,14.85
2022-10-23T20:06:23.286Z,14.83
2022-10-23T20:11:30.557Z,14.82
2022-10-23T20:16:35.040Z,14.69
2022-10-23T20:21:37.817Z,14.76
2022-10-23T20:26:44.227Z,14.74
2022-10-23T20:31:45.650Z,14.78
2022-10-23T20:36:49.384Z,14.68
2022-10-23T20:41:51.503Z,14.51
2022-10-23T20:46:52.920Z,14.40
2022-10-23T20:51:56.977Z,14.45
2022-10-23T20:56:58.604Z,14.29
2022-10-23T21:02:00.350Z,14.17
2022-10-23T21:07:09.981Z,14.30
2022-10-23T21:12:12.566Z,14.23
2022-10-23T21:17:14.056Z,14.22
2022-10-23T21:22:15.528Z,14.17
2022-10-23T21:27:16.984Z,14.34
2022-10-23T21:32:18.464Z,14.51
2022-10-23T21:37:19.938Z,14.57
2022-10-23T21:42:21.417Z,14.57
2022-10-23T21:47:22.941Z,14.58
2022-10-23T21:52:24.418Z,14.58
2022-10-23T21:57:29.352Z,14.58
2022-10-23T22:02:30.929Z,14.63
2022-10-23T22:07:32.617Z,14.59
2022-10-23T22:12:34.045Z,14.69
2022-10-23T22:17:35.584Z,14.68
2022-10-23T22:22:37.425Z,14.59
2022-10-23T22:27:38.880Z,14.59
2022-10-23T22:32:40.368Z,14.54
2022-10-23T22:37:41.823Z,14.49
2022-10-23T22:42:43.472Z,14.42
2022-10-23T22:47:45.318Z,14.37
2022-10-23T22:52:47.057Z,14.37
2022-10-23T22:57:48.576Z,14.38
2022-10-23T23:02:50.128Z,14.38
2022-10-23T23:07:51.640Z,14.37
2022-10-23T23:12:53.164Z,14.29
2022-10-23T23:17:54.620Z,14.12
2022-10-23T23:22:56.029Z,13.90
2022-10-23T23:27:57.657Z,13.91
2022-10-23T23:32:59.092Z,13.98
2022-10-23T23:38:00.577Z,13.94
2022-10-23T23:43:02.223Z,13.71
2022-10-23T23:48:03.902Z,13.74
2022-10-23T23:53:05.456Z,13.76
2022-10-23T23:58:06.917Z,13.82
